Troy, Alabama
Current Conditions -  °F | °C
As of 7:53 AM on Sunday 21 Dec 2014 (Local Time) from KTOI Reporting Station
Overcast Overcast  
Wind Chill: 12°   Ceiling: 700
Heat Index: 12°   Visibility: 9mi
Dew Point: 10°   Wind: 6mph
Humidity: 89%   Direction: 70°ENE
Pressure: 30.15"   Gusts: NA
Location:  31.81°N, 85.97°W
Report Text: KTOI 211353Z AUTO 07005KT 9SM OVC007 12/10 A3015 RMK AO2 SLP207 T01170100
Loading
Personal Weather Stations






























Interactive Weather Map New forecast layout! Learn more

10-Day Weather Forecast

Advertisements
Track Severe Weather on mobile